Haddam, KS (66944)

8:16 AM CDT on July 26, 2014 (GMT -0500)
Crystal Springs Campground (KNEFAIRB2) Elev 1424 ft | 40.13 °N, 97.21 °W | Change Station
Active Advisory: Heat Advisory

Current weather conditions updated 2 seconds ago

Mostly Cloudy
Mostly Cloudy
77.2 °F
Feels Like 78 °F
N
5.0
Wind Variable Wind from NNE
Gusts 10.0 mph

Today is forecast to be nearly the same temperature as yesterday.

Today
High -- | Low -- °F
--% Chance of Precip.
Yesterday
High -- | Low -- °F
Precip. -- in
6:22 AM 8:48 PM
Waning Crescent, 0% visible
Pressure 29.81 in
Visibility 3.0 miles
Clouds Mostly Cloudy 700 ft
Heat Index 78 °F
Dew Point 75 °F
Humidity 94%
Rainfall 0.00 in
Snow Depth Not available.
UV 1 out of 12
Pollen 6.60 out of 12
Air Quality Not available.
Flu Activity Not available.
METAR KHJH 261255Z AUTO 03008KT 3SM BR BKN007 25/23 A2981 RMK AO2 T02520228

More Conditions Fewer Conditions

Pressure 29.81 in
Visibility 3.0 miles
Clouds Mostly Cloudy 700 ft
Heat Index 78 °F
Dew Point 75 °F
Humidity 94%
Rainfall 0.00 in
Snow Depth Not available.
UV 1 out of 12
Pollen 6.60 out of 12
Air Quality Not available.
Flu Activity Not available.
METAR KHJH 261255Z AUTO 03008KT 3SM BR BKN007 25/23 A2981 RMK AO2 T02520228

More Conditions Fewer Conditions

10-Day Weather Forecast

Almanac

Astronomy

Jul. 26, 2014 Rise Set
Actual Time 6:22 AM CDT 8:48 PM CDT
Civil Twilight 5:51 AM CDT 9:19 PM CDT
Nautical Twilight 5:13 AM CDT 9:57 PM CDT
Astronomical Twilight 4:31 AM CDT 10:39 PM CDT
Moon 6:16 AM CDT 8:24 PM CDT
Length of Visible Light 15h 27m
Length of Day
14h 25m
Tomorrow will be 1m 48s shorter.
Waning Crescent, 0% of the Moon is Illuminated
Today
Waning Crescent
Jul 26
New
Aug 3
First Quarter
Aug 10
Full
Aug 17
Last Quarter

Today's Extremes

State Highs State Lows

Community

WunderPhotos

Upload Photos

1,737,565 photos uploaded!

Nearby

Snow Depth

Station Depth Elevation
No new snow has been reported.

Earthquake Activity

City Distance Mag. Time & Date
No recent earthquake activity has been reported nearby.
Minimum magnitude displayed is 2.5.

Coastal Water Temperatures

Place Temperature
No Stations Reporting

Nearby Weather Stations

Station Location Temp. Heat Index Dew Point Humidity Wind Precip. Elev Updated Type
Crystal Springs Campground, Fairbury, NE 77.2 °F 78 °F 75 °F 94% NNE  at  5.0 mph 0.00 in / hr 1424 ft 8:16 AM CDT Rapid Fire
MesoWest FAIRB2 , Fairbury, NE 76 °F 74 °F - - North  at  - 0.00 in / hr 1321 ft 7:00 AM CDT MADIS
MesoWest BREME1 , Hanover, KS 73 °F 71 °F - - North  at  - 0.00 in / hr 1318 ft 7:00 AM CDT MADIS

Show More Stations Show Fewer Stations